Time;durP1;ratioP1;P1;durP2;ratioP2;P2;SDS_P1;SDS_P2;PMS_P1;PMS_P2;Temp;Humidity;BMP_temperature;BMP_pressure;BME280_temperature;BME280_humidity;BME280_pressure;Samples;Min_cycle;Max_cycle;Signal;HPM_P1;HPM_P2
2022/12/21 00:01:35;;;;;;;3.10;2.00;;;;;;;11.27;100.00;100094.53;8311810;28;20053;-50
2022/12/21 00:05:36;;;;;;;2.13;1.92;;;;;;;11.19;100.00;100102.56;8312214;28;20047;-50
2022/12/21 00:09:37;;;;;;;2.00;1.80;;;;;;;11.20;100.00;100104.25;8286346;28;20078;-50
2022/12/21 00:13:37;;;;;;;3.97;2.40;;;;;;;11.15;100.00;100100.31;8293138;28;20408;-50
2022/12/21 00:17:38;;;;;;;2.65;2.45;;;;;;;11.20;100.00;100098.00;8293411;28;20038;-54
2022/12/21 00:21:39;;;;;;;4.10;2.63;;;;;;;11.20;100.00;100090.72;8292425;28;20073;-53
2022/12/21 00:25:39;;;;;;;4.28;2.92;;;;;;;11.16;100.00;100081.22;8292987;28;20060;-50
2022/12/21 00:29:40;;;;;;;4.40;2.58;;;;;;;11.11;100.00;100078.16;8289813;28;20042;-50
2022/12/21 00:33:42;;;;;;;4.53;3.15;;;;;;;11.02;100.00;100079.09;8307325;28;20396;-49
2022/12/21 00:37:43;;;;;;;5.32;2.95;;;;;;;11.02;100.00;100072.81;8292629;28;20042;-50
2022/12/21 00:41:44;;;;;;;3.78;3.10;;;;;;;10.96;100.00;100071.59;8284357;28;20042;-50
2022/12/21 00:45:47;;;;;;;5.65;3.50;;;;;;;10.86;100.00;100068.06;8305152;28;20048;-51
2022/12/21 00:49:48;;;;;;;6.00;3.88;;;;;;;10.91;100.00;100082.00;8292295;28;20042;-53
2022/12/21 00:53:50;;;;;;;3.63;3.28;;;;;;;10.92;100.00;100072.03;8291917;28;20033;-52
2022/12/21 00:57:52;;;;;;;5.82;3.50;;;;;;;10.82;100.00;100096.44;8292172;28;20042;-52
2022/12/21 01:01:52;;;;;;;6.10;3.70;;;;;;;10.70;100.00;100097.66;8310797;28;20041;-50
2022/12/21 01:05:54;;;;;;;5.20;3.33;;;;;;;10.70;100.00;100094.94;8306376;28;20038;-50
2022/12/21 01:09:54;;;;;;;6.05;4.07;;;;;;;10.72;100.00;100092.09;8259492;28;20034;-51
2022/12/21 01:13:56;;;;;;;4.25;3.80;;;;;;;10.81;100.00;100092.03;8259687;28;20061;-50
2022/12/21 01:17:58;;;;;;;6.15;3.70;;;;;;;10.81;100.00;100092.03;8285351;28;20569;-53
2022/12/21 01:21:59;;;;;;;5.38;4.75;;;;;;;10.87;100.00;100096.84;8291955;28;20384;-52
2022/12/21 01:26:01;;;;;;;11.32;7.40;;;;;;;10.85;100.00;100098.84;8291774;28;20778;-50
2022/12/21 01:30:05;;;;;;;7.50;5.10;;;;;;;10.54;100.00;100105.56;8297651;28;20111;-50
2022/12/21 01:34:06;;;;;;;7.97;4.85;;;;;;;10.53;100.00;100101.19;8324354;28;20041;-50
2022/12/21 01:38:07;;;;;;;7.82;4.93;;;;;;;10.51;100.00;100105.88;8324091;28;20044;-51
2022/12/21 01:42:12;;;;;;;7.75;6.03;;;;;;;10.52;100.00;100122.94;8323777;28;20140;-50
2022/12/21 01:46:40;;;;;;;8.60;5.82;;;;;;;10.68;100.00;100132.13;8309127;28;20139;-53
2022/12/21 01:55:00;;;;;;;11.50;7.18;;;;;;;10.81;100.00;100119.06;8402725;27;20473;-49
2022/12/21 01:59:08;;;;;;;11.75;7.60;;;;;;;10.82;100.00;100125.31;8399755;27;20047;-53
2022/12/21 02:03:13;;;;;;;10.40;7.70;;;;;;;10.85;100.00;100125.88;8400699;27;20443;-52
2022/12/21 02:07:15;;;;;;;12.23;8.40;;;;;;;10.89;100.00;100127.25;8400978;27;20108;-51
2022/12/21 02:11:16;;;;;;;12.85;8.50;;;;;;;10.86;100.00;100130.28;8403031;28;21224;-49
2022/12/21 02:15:19;;;;;;;13.00;9.10;;;;;;;10.84;100.00;100135.00;8400669;28;20505;-49
2022/12/21 02:19:59;;;;;;;12.13;9.55;;;;;;;10.78;100.00;100127.50;8400174;28;20111;-51
2022/12/21 02:24:39;;;;;;;14.38;9.85;;;;;;;10.69;100.00;100131.09;8416377;28;20047;-49
2022/12/21 02:29:13;;;;;;;13.93;8.77;;;;;;;10.53;100.00;100125.50;8417206;28;20041;-51
2022/12/21 02:33:31;;;;;;;12.60;9.65;;;;;;;10.59;100.00;100127.59;8382756;28;20044;-49
2022/12/21 02:37:46;;;;;;;16.55;9.60;;;;;;;10.58;100.00;100125.88;8405552;28;20044;-49
2022/12/21 02:44:12;;;;;;;15.88;10.85;;;;;;;10.65;100.00;100128.84;8382501;28;20032;-51
2022/12/21 02:46:58;;;;;;;15.07;10.27;;;;;;;10.54;100.00;100135.31;8381763;28;20506;-49
2022/12/21 02:51:05;;;;;;;17.67;10.73;;;;;;;10.56;100.00;100127.91;8365470;28;20366;-50
2022/12/21 02:55:12;;;;;;;21.13;10.05;;;;;;;10.34;100.00;100119.34;8366462;28;20040;-48
2022/12/21 02:59:17;;;;;;;12.80;8.88;;;;;;;10.23;100.00;100106.88;8383780;27;20036;-49
2022/12/21 03:03:52;;;;;;;20.40;10.27;;;;;;;10.23;100.00;100101.47;8359447;28;20114;-49
2022/12/21 03:08:27;;;;;;;181.85;14.77;;;;;;;10.18;100.00;100098.34;8368092;28;20067;-51
2022/12/21 03:13:08;;;;;;;207.35;17.58;;;;;;;9.96;100.00;100088.75;8355846;28;20041;-49
2022/12/21 03:17:23;;;;;;;193.88;13.85;;;;;;;10.12;100.00;100088.13;8360052;28;20045;-49
2022/12/21 03:21:34;;;;;;;100.88;12.20;;;;;;;9.95;100.00;100080.78;8359411;28;20090;-48
2022/12/21 03:25:44;;;;;;;14.55;9.45;;;;;;;10.10;100.00;100073.94;8359360;28;20502;-49
2022/12/21 03:29:52;;;;;;;43.88;11.80;;;;;;;10.19;100.00;100077.59;8380830;28;20044;-50
2022/12/21 03:34:01;;;;;;;20.38;11.68;;;;;;;10.29;100.00;100079.25;8391657;28;20041;-48
2022/12/21 03:38:07;;;;;;;23.75;11.57;;;;;;;10.27;100.00;100077.72;8392751;28;20493;-50
2022/12/21 03:42:12;;;;;;;110.00;14.30;;;;;;;10.27;100.00;100075.00;8392213;28;20113;-49
2022/12/21 03:46:19;;;;;;;64.25;15.38;;;;;;;10.27;100.00;100081.25;8391517;28;20165;-49
2022/12/21 03:50:23;;;;;;;71.65;14.23;;;;;;;10.20;100.00;100069.34;8391632;28;20041;-52
2022/12/21 03:54:56;;;;;;;94.43;13.38;;;;;;;10.18;100.00;100071.34;8388726;28;20032;-50
2022/12/21 03:58:58;;;;;;;76.20;11.43;;;;;;;10.15;100.00;100066.22;8387349;28;20064;-48
2022/12/21 04:03:10;;;;;;;76.75;12.23;;;;;;;10.14;100.00;100058.28;8388480;28;20127;-50
2022/12/21 04:07:13;;;;;;;85.03;11.48;;;;;;;10.10;100.00;100051.47;8383700;28;20072;-49
2022/12/21 04:12:46;;;;;;;79.72;10.55;;;;;;;10.04;100.00;100052.91;8386309;28;20044;-48
2022/12/21 04:16:06;;;;;;;95.60;9.52;;;;;;;9.90;100.00;100048.81;8385909;28;20139;-49
2022/12/21 04:19:58;;;;;;;43.70;8.32;;;;;;;9.85;100.00;100059.19;8385965;28;20319;-49
2022/12/21 04:28:27;;;;;;;16.73;9.30;;;;;;;10.05;100.00;100054.59;8357189;28;20045;-49
2022/12/21 04:32:27;;;;;;;14.82;9.30;;;;;;;10.01;100.00;100054.03;8371526;28;20044;-49
2022/12/21 04:37:30;;;;;;;17.25;9.18;;;;;;;10.06;100.00;100050.03;8382526;28;20116;-49
2022/12/21 04:40:52;;;;;;;16.23;9.40;;;;;;;10.00;100.00;100049.63;8362684;28;20055;-48
2022/12/21 04:44:52;;;;;;;113.20;12.63;;;;;;;9.74;100.00;100042.34;8356630;28;20037;-48
2022/12/21 04:48:53;;;;;;;34.90;8.77;;;;;;;9.64;100.00;100039.66;8365554;28;20074;-48
2022/12/21 04:52:53;;;;;;;91.15;9.85;;;;;;;9.67;100.00;100049.34;8379363;28;20445;-48
2022/12/21 04:56:54;;;;;;;53.63;9.45;;;;;;;9.54;100.00;100032.59;8362280;28;20048;-48
2022/12/21 05:00:54;;;;;;;21.73;9.70;;;;;;;9.61;100.00;100039.13;8363087;28;20044;-49
2022/12/21 05:04:55;;;;;;;17.38;9.82;;;;;;;9.74;100.00;100045.91;8342151;28;20064;-48
2022/12/21 05:08:56;;;;;;;17.27;9.68;;;;;;;9.83;100.00;100049.56;8371787;28;20636;-49
2022/12/21 05:12:57;;;;;;;18.65;10.27;;;;;;;9.80;100.00;100034.50;8356061;28;20037;-48
2022/12/21 05:16:57;;;;;;;17.20;10.15;;;;;;;9.82;100.00;100037.03;8371995;28;20513;-49
2022/12/21 05:20:57;;;;;;;18.40;10.63;;;;;;;9.78;100.00;100038.34;8370538;28;20130;-49
2022/12/21 05:24:58;;;;;;;18.95;10.95;;;;;;;9.82;100.00;100028.94;8370843;28;20398;-49
2022/12/21 05:28:59;;;;;;;34.42;10.40;;;;;;;9.69;100.00;100025.72;8338514;28;20498;-51
2022/12/21 05:33:00;;;;;;;19.42;10.35;;;;;;;9.68;100.00;100029.44;8361653;28;20033;-49
2022/12/21 05:37:00;;;;;;;22.17;10.02;;;;;;;9.61;100.00;100031.03;8360357;28;20051;-48
2022/12/21 05:41:01;;;;;;;89.82;14.63;;;;;;;9.58;100.00;100020.53;8368831;28;20119;-52
2022/12/21 05:45:02;;;;;;;50.13;12.63;;;;;;;9.64;100.00;100022.63;8370518;28;20517;-48
2022/12/21 05:49:02;;;;;;;31.88;12.07;;;;;;;9.75;100.00;100030.53;8370909;28;20414;-48
2022/12/21 05:53:03;;;;;;;24.40;11.45;;;;;;;9.79;100.00;100024.69;8370078;28;20048;-49
2022/12/21 05:57:04;;;;;;;25.27;10.88;;;;;;;9.80;100.00;100028.25;8370724;28;20536;-48
2022/12/21 06:01:07;;;;;;;19.08;10.85;;;;;;;9.79;100.00;100022.00;8349557;28;20040;-48
2022/12/21 06:05:08;;;;;;;17.75;11.13;;;;;;;9.80;100.00;100020.16;8376262;28;20040;-50
2022/12/21 06:09:08;;;;;;;22.73;11.10;;;;;;;9.69;100.00;100010.41;8366845;28;20029;-49
2022/12/21 06:13:09;;;;;;;17.70;9.07;;;;;;;9.66;100.00;100012.53;8364226;28;20041;-48
2022/12/21 06:17:10;;;;;;;14.80;8.40;;;;;;;9.65;100.00;100013.53;8337458;28;20053;-48
2022/12/21 06:21:12;;;;;;;19.05;11.60;;;;;;;9.62;100.00;100008.44;8356360;28;20105;-49
2022/12/21 06:25:13;;;;;;;19.42;10.63;;;;;;;9.64;100.00;100011.84;8383710;28;20085;-49
2022/12/21 06:29:13;;;;;;;19.48;11.00;;;;;;;9.68;100.00;100013.25;8390773;28;20067;-48
2022/12/21 06:33:14;;;;;;;20.65;11.77;;;;;;;9.62;100.00;100020.09;8364924;28;20037;-50
2022/12/21 06:37:14;;;;;;;19.13;9.27;;;;;;;9.42;100.00;100009.47;8349433;28;20491;-49
2022/12/21 06:41:17;;;;;;;17.33;9.40;;;;;;;9.35;100.00;100021.84;8338501;28;20041;-49
2022/12/21 06:45:17;;;;;;;15.73;9.73;;;;;;;9.19;100.00;100027.00;8342860;28;20497;-49
2022/12/21 06:49:18;;;;;;;18.20;9.77;;;;;;;9.20;100.00;100023.28;8369415;28;20415;-52
2022/12/21 06:53:19;;;;;;;16.17;9.73;;;;;;;9.10;100.00;100033.25;8341107;28;20120;-50
2022/12/21 06:57:19;;;;;;;16.38;9.85;;;;;;;9.05;100.00;100028.28;8344468;28;20037;-49
2022/12/21 07:01:25;;;;;;;18.25;10.30;;;;;;;9.08;100.00;100029.81;8372877;28;20040;-48
2022/12/21 07:05:25;;;;;;;21.25;9.90;;;;;;;9.08;100.00;100035.22;8371064;28;20059;-49
2022/12/21 07:09:26;;;;;;;17.95;10.35;;;;;;;9.11;100.00;100043.03;8385870;28;20028;-49
2022/12/21 07:13:27;;;;;;;20.27;11.15;;;;;;;9.12;100.00;100036.66;8402446;28;20426;-49
2022/12/21 07:17:28;;;;;;;19.13;11.30;;;;;;;9.23;100.00;100055.38;8371421;28;20037;-49
2022/12/21 07:21:28;;;;;;;19.98;12.23;;;;;;;9.22;100.00;100042.88;8360643;28;20048;-49
2022/12/21 07:25:29;;;;;;;17.48;11.07;;;;;;;9.16;100.00;100049.72;8345435;28;20502;-49
2022/12/21 07:29:29;;;;;;;15.48;9.35;;;;;;;9.16;100.00;100056.94;8377569;28;20076;-49
2022/12/21 07:33:30;;;;;;;15.02;8.75;;;;;;;9.10;100.00;100052.97;8374252;28;20520;-48
2022/12/21 07:37:32;;;;;;;16.33;10.30;;;;;;;9.07;100.00;100055.09;8371041;28;20106;-48
2022/12/21 07:41:32;;;;;;;65.00;35.22;;;;;;;9.19;100.00;100064.75;8373419;28;20492;-51
2022/12/21 07:45:33;;;;;;;46.20;30.00;;;;;;;9.17;100.00;100056.78;8375793;28;20060;-49
2022/12/21 07:49:34;;;;;;;35.88;21.08;;;;;;;9.20;100.00;100053.81;8375542;28;20037;-49
2022/12/21 07:53:35;;;;;;;27.60;15.80;;;;;;;9.22;100.00;100075.25;8378902;28;20048;-48
2022/12/21 07:57:47;;;;;;;32.65;19.98;;;;;;;9.24;100.00;100078.66;8375596;28;20044;-49
2022/12/21 08:01:48;;;;;;;22.52;14.40;;;;;;;9.26;100.00;100076.66;8372821;28;20041;-50
2022/12/21 08:05:53;;;;;;;19.73;10.98;;;;;;;9.32;100.00;100076.06;8355136;28;20120;-52
2022/12/21 08:09:54;;;;;;;22.30;12.48;;;;;;;9.41;100.00;100075.22;8363801;28;20033;-49
2022/12/21 08:13:55;;;;;;;23.02;14.25;;;;;;;9.38;100.00;100089.84;8362528;28;20125;-49
2022/12/21 08:17:56;;;;;;;19.98;12.13;;;;;;;9.59;100.00;100089.69;8354527;28;20037;-48
2022/12/21 08:21:56;;;;;;;19.40;11.90;;;;;;;9.52;100.00;100088.56;8354814;28;20036;-49
2022/12/21 08:26:06;;;;;;;20.77;11.73;;;;;;;9.47;100.00;100091.69;8368282;28;20029;-50
2022/12/21 08:30:08;;;;;;;18.70;12.25;;;;;;;9.45;100.00;100090.97;8390166;28;20048;-50
2022/12/21 08:34:09;;;;;;;17.25;12.93;;;;;;;9.51;100.00;100098.50;8390943;28;20071;-51
2022/12/21 08:38:09;;;;;;;16.30;10.15;;;;;;;9.69;100.00;100101.31;8391469;28;20041;-49
2022/12/21 08:42:12;;;;;;;21.58;12.38;;;;;;;9.70;100.00;100097.63;8386223;28;20048;-50
2022/12/21 08:46:13;;;;;;;23.90;11.35;;;;;;;9.71;100.00;100099.31;8388554;28;20073;-49
2022/12/21 08:50:13;;;;;;;14.70;9.68;;;;;;;9.49;100.00;100110.44;8389069;28;20602;-49
2022/12/21 08:54:14;;;;;;;15.48;9.15;;;;;;;9.35;100.00;100117.13;8390337;28;20696;-49
2022/12/21 08:58:15;;;;;;;18.33;10.20;;;;;;;9.51;100.00;100130.88;8390307;28;20048;-49
2022/12/21 09:02:15;;;;;;;14.70;9.35;;;;;;;9.52;100.00;100129.03;8389416;28;20498;-50
2022/12/21 09:06:16;;;;;;;14.63;9.77;;;;;;;9.68;100.00;100126.59;8389612;28;20405;-52
2022/12/21 09:10:17;;;;;;;14.85;9.45;;;;;;;9.84;100.00;100127.72;8389665;28;20052;-50
2022/12/21 09:14:17;;;;;;;21.27;11.18;;;;;;;9.84;100.00;100146.59;8389428;28;20032;-49
2022/12/21 09:18:18;;;;;;;20.17;10.80;;;;;;;9.88;100.00;100142.59;8376250;28;20059;-49
2022/12/21 09:22:18;;;;;;;16.80;9.95;;;;;;;9.95;100.00;100141.03;8371463;28;20119;-50
2022/12/21 09:26:19;;;;;;;18.40;10.43;;;;;;;10.14;100.00;100140.16;8371195;28;20041;-49
2022/12/21 09:30:21;;;;;;;26.05;12.60;;;;;;;10.28;100.00;100147.78;8374946;28;20482;-50
2022/12/21 09:34:22;;;;;;;32.60;14.90;;;;;;;10.33;100.00;100145.50;8378658;28;20402;-49
2022/12/21 09:38:22;;;;;;;41.60;16.73;;;;;;;10.41;100.00;100147.44;8356633;28;20044;-49
2022/12/21 09:42:48;;;;;;;45.53;17.95;;;;;;;10.31;100.00;100150.19;8355989;28;20414;-49
2022/12/21 09:46:53;;;;;;;46.70;18.23;;;;;;;10.31;100.00;100158.28;8356373;28;20037;-50
2022/12/21 09:51:01;;;;;;;50.90;18.17;;;;;;;10.38;100.00;100170.22;8380053;28;20040;-49
2022/12/21 09:55:14;;;;;;;58.05;19.50;;;;;;;10.66;100.00;100173.78;8388526;28;20036;-49
2022/12/21 09:59:18;;;;;;;46.20;19.33;;;;;;;10.65;100.00;100181.06;8373166;28;20052;-49
2022/12/21 10:03:51;;;;;;;43.30;18.10;;;;;;;10.66;100.00;100185.47;8355237;28;20065;-49
2022/12/21 10:12:56;;;;;;;30.80;14.07;;;;;;;11.24;100.00;100203.06;8401421;27;20481;-49
2022/12/21 10:17:29;;;;;;;37.00;14.90;;;;;;;13.08;100.00;100200.06;8397285;27;20036;-49
2022/12/21 10:21:56;;;;;;;20.20;10.48;;;;;;;13.95;99.84;100193.09;8387947;27;20052;-52
2022/12/21 10:25:58;;;;;;;10.57;6.25;;;;;;;14.16;95.83;100198.88;8381458;28;20033;-49
2022/12/21 10:29:59;;;;;;;9.30;5.10;;;;;;;13.38;96.82;100194.06;8374490;28;20032;-49
2022/12/21 10:34:01;;;;;;;9.05;4.70;;;;;;;14.25;93.81;100197.88;8395943;27;20065;-49
2022/12/21 10:38:13;;;;;;;6.00;4.30;;;;;;;14.26;91.19;100185.97;8422410;27;20037;-49
2022/12/21 10:42:37;;;;;;;8.57;5.10;;;;;;;14.70;92.05;100200.00;8400358;27;20072;-50
2022/12/21 10:46:38;;;;;;;;;;;;;;;13.32;95.73;100211.00;8400094;27;20048;-52
2022/12/21 10:50:45;;;;;;;9.95;4.55;;;;;;;12.23;100.00;100205.50;8396001;27;19916;-49
2022/12/21 10:54:48;;;;;;;11.32;5.25;;;;;;;11.75;100.00;100203.25;8386882;27;20040;-49
2022/12/21 10:58:52;;;;;;;12.65;5.78;;;;;;;11.55;100.00;100201.72;8409795;27;20036;-49
2022/12/21 11:02:56;;;;;;;14.53;5.70;;;;;;;11.37;100.00;100198.13;8384487;27;20043;-49
2022/12/21 11:07:04;;;;;;;17.17;6.20;;;;;;;11.32;100.00;100195.03;8389850;27;20160;-52
2022/12/21 11:11:30;;;;;;;13.05;5.35;;;;;;;11.26;100.00;100201.06;8375271;27;20043;-51
2022/12/21 11:15:31;;;;;;;15.88;4.50;;;;;;;11.26;100.00;100194.81;8378666;27;20151;-49
2022/12/21 11:19:34;;;;;;;13.63;4.95;;;;;;;11.21;100.00;100187.16;8372601;28;20413;-51
2022/12/21 11:23:35;;;;;;;20.52;5.13;;;;;;;11.10;100.00;100184.66;8341967;28;20105;-50
2022/12/21 11:27:36;;;;;;;11.43;4.60;;;;;;;11.25;100.00;100172.28;8345896;28;20056;-51
2022/12/21 11:31:36;;;;;;;14.43;4.53;;;;;;;12.37;100.00;100166.13;8374566;28;20036;-49
2022/12/21 11:35:37;;;;;;;12.23;4.32;;;;;;;13.05;97.85;100165.13;8374670;28;20076;-50
2022/12/21 11:39:41;;;;;;;15.15;3.90;;;;;;;12.60;98.27;100161.88;8373380;28;20131;-51
2022/12/21 11:43:48;;;;;;;10.32;4.03;;;;;;;12.00;100.00;100162.84;8373981;28;20041;-49
2022/12/21 11:48:23;;;;;;;13.65;5.07;;;;;;;11.74;100.00;100163.66;8373767;28;20203;-53
2022/12/21 11:53:02;;;;;;;9.38;3.65;;;;;;;11.70;100.00;100162.28;8374304;28;20036;-49
2022/12/21 12:01:42;;;;;;;13.98;4.70;;;;;;;11.59;100.00;100165.19;8383466;28;20423;-50
2022/12/21 12:06:10;;;;;;;12.25;4.30;;;;;;;11.63;100.00;100161.22;8338954;28;20068;-49
2022/12/21 12:15:13;;;;;;;15.77;4.45;;;;;;;11.95;100.00;100148.94;8404096;27;20452;-52
2022/12/21 12:19:54;;;;;;;10.35;4.28;;;;;;;12.22;100.00;100156.88;8382213;27;20041;-50
2022/12/21 12:24:34;;;;;;;12.23;4.65;;;;;;;12.25;100.00;100151.16;8365853;28;20056;-49
2022/12/21 12:28:52;;;;;;;9.82;4.53;;;;;;;11.98;100.00;100163.00;8394332;27;20032;-50
2022/12/21 12:33:19;;;;;;;13.38;5.30;;;;;;;11.95;100.00;100162.47;8415670;27;20040;-51
2022/12/21 12:37:49;;;;;;;15.25;5.30;;;;;;;12.03;100.00;100157.09;8396981;27;20040;-53
2022/12/21 12:42:07;;;;;;;8.45;3.50;;;;;;;12.05;100.00;100149.69;8397144;27;20112;-49
2022/12/21 12:46:36;;;;;;;10.30;2.70;;;;;;;12.13;99.67;100149.75;8414365;27;20044;-49
2022/12/21 12:50:44;;;;;;;5.70;2.30;;;;;;;12.17;98.45;100148.41;8413063;27;20082;-49
2022/12/21 12:55:01;;;;;;;4.47;2.33;;;;;;;12.15;98.41;100145.00;8414399;27;20440;-49
2022/12/21 13:03:43;;;;;;;4.43;1.92;;;;;;;12.16;97.44;100142.13;8312869;27;20701;-49
2022/12/21 13:08:07;;;;;;;3.60;1.40;;;;;;;12.13;96.07;100133.50;8315698;28;20045;-50
2022/12/21 13:12:40;;;;;;;3.67;1.40;;;;;;;12.23;92.87;100131.50;8315570;28;20420;-51
2022/12/21 13:17:20;;;;;;;2.92;1.00;;;;;;;12.24;92.70;100133.19;8282558;28;20046;-53
2022/12/21 13:21:24;;;;;;;2.45;0.90;;;;;;;12.30;90.46;100122.56;8282047;28;20458;-49
2022/12/21 13:25:50;;;;;;;2.35;0.68;;;;;;;12.28;89.12;100118.31;8309730;28;20045;-49
2022/12/21 13:30:00;;;;;;;2.47;0.82;;;;;;;12.22;88.75;100113.53;8308946;28;20068;-49
2022/12/21 13:34:04;;;;;;;3.03;1.05;;;;;;;12.21;89.50;100109.13;8304760;28;20522;-49
2022/12/21 13:38:44;;;;;;;2.45;0.93;;;;;;;12.13;89.16;100100.97;8295492;28;20089;-49
2022/12/21 13:42:52;;;;;;;5.18;1.17;;;;;;;12.13;87.38;100099.09;8306182;28;20071;-50
2022/12/21 13:46:56;;;;;;;7.03;0.88;;;;;;;12.07;87.73;100098.91;8313728;28;20064;-49
2022/12/21 13:51:26;;;;;;;2.45;0.80;;;;;;;12.00;87.19;100097.81;8304207;28;20659;-49
2022/12/21 13:55:53;;;;;;;2.58;0.90;;;;;;;11.94;87.38;100099.31;8280175;28;20765;-49
2022/12/21 14:04:41;;;;;;;2.42;1.10;;;;;;;11.92;87.92;100085.06;8402541;27;20393;-49
2022/12/21 14:09:09;;;;;;;2.72;1.00;;;;;;;11.91;87.74;100088.78;8381108;27;20496;-50
2022/12/21 14:13:41;;;;;;;2.38;0.80;;;;;;;11.83;88.24;100086.88;8448092;27;20032;-49
2022/12/21 14:17:45;;;;;;;3.05;0.70;;;;;;;11.77;88.99;100098.34;8425520;27;20038;-49
2022/12/21 14:21:48;;;;;;;4.10;1.40;;;;;;;11.76;88.75;100102.06;8392478;27;20056;-49
2022/12/21 14:25:50;;;;;;;3.60;1.00;;;;;;;11.74;88.43;100103.22;8396458;27;20048;-50
2022/12/21 14:29:50;;;;;;;4.75;1.25;;;;;;;11.66;89.12;100101.34;8396816;27;20032;-49
2022/12/21 14:33:54;;;;;;;2.83;1.13;;;;;;;11.59;89.51;100089.38;8397221;27;20037;-49
2022/12/21 14:38:26;;;;;;;6.23;0.80;;;;;;;11.48;90.08;100092.34;8396465;27;20043;-50
2022/12/21 14:42:42;;;;;;;1.98;0.93;;;;;;;11.38;90.56;100080.75;8395598;27;20040;-49
2022/12/21 14:47:07;;;;;;;5.68;2.00;;;;;;;11.31;91.28;100085.09;8388000;27;20429;-49
2022/12/21 14:51:10;;;;;;;3.35;1.20;;;;;;;11.22;91.65;100072.50;8379398;27;20046;-49
2022/12/21 14:55:33;;;;;;;2.05;1.00;;;;;;;11.15;91.30;100074.13;8395367;28;20052;-49
2022/12/21 14:59:43;;;;;;;3.50;0.82;;;;;;;11.09;91.40;100074.75;8410203;27;20529;-49
2022/12/21 15:03:52;;;;;;;2.70;1.10;;;;;;;11.08;91.10;100073.06;8400918;27;20036;-49
2022/12/21 15:08:03;;;;;;;2.53;0.60;;;;;;;11.00;91.34;100070.25;8397796;28;20036;-49
2022/12/21 15:16:23;;;;;;;4.07;0.80;;;;;;;10.74;92.96;100063.88;8346614;27;20822;-49
2022/12/21 15:20:45;;;;;;;1.13;0.70;;;;;;;10.63;92.86;100058.72;8345545;28;20049;-50
2022/12/21 15:24:53;;;;;;;1.85;1.10;;;;;;;10.52;93.52;100064.31;8346946;28;20048;-50
2022/12/21 15:28:57;;;;;;;2.63;1.23;;;;;;;10.48;93.10;100045.84;8358434;28;20690;-49
2022/12/21 15:33:23;;;;;;;2.42;0.88;;;;;;;10.45;93.21;100047.03;8328708;28;20199;-51
2022/12/21 15:37:28;;;;;;;2.42;0.80;;;;;;;10.39;93.51;100057.56;8332576;28;20042;-50
2022/12/21 15:41:40;;;;;;;4.63;1.58;;;;;;;10.23;93.88;100058.22;8327050;28;20037;-49
2022/12/21 15:45:49;;;;;;;3.70;1.77;;;;;;;10.03;95.07;100062.84;8324598;28;20033;-52
2022/12/21 15:49:58;;;;;;;7.47;3.17;;;;;;;9.94;95.41;100049.34;8341028;28;20033;-50
2022/12/21 15:54:11;;;;;;;2.30;1.27;;;;;;;9.83;95.69;100046.88;8357140;28;20495;-50
2022/12/21 15:58:16;;;;;;;4.32;1.05;;;;;;;9.24;98.54;100038.22;8339703;28;20037;-49
2022/12/21 16:02:22;;;;;;;3.15;1.60;;;;;;;8.76;100.00;100029.28;8341249;28;20125;-53
2022/12/21 16:06:25;;;;;;;4.05;2.08;;;;;;;8.66;100.00;100028.41;8327286;28;20045;-49
2022/12/21 16:10:29;;;;;;;4.75;1.63;;;;;;;8.55;100.00;100015.94;8336621;28;20033;-50
2022/12/21 16:14:33;;;;;;;4.27;1.90;;;;;;;8.62;100.00;100021.59;8321358;28;20033;-50
2022/12/21 16:18:36;;;;;;;4.18;2.00;;;;;;;8.58;100.00;100004.88;8323172;28;20042;-50
2022/12/21 16:22:37;;;;;;;2.63;1.42;;;;;;;8.66;100.00;99999.63;8350993;28;20048;-50
2022/12/21 16:26:38;;;;;;;4.22;1.83;;;;;;;8.58;100.00;100009.41;8319752;28;20049;-50
2022/12/21 16:30:38;;;;;;;4.63;1.85;;;;;;;8.56;100.00;100001.47;8320615;28;20051;-50
2022/12/21 16:34:43;;;;;;;4.95;2.60;;;;;;;8.62;100.00;99995.50;8320627;28;20046;-51
2022/12/21 16:38:43;;;;;;;5.18;2.45;;;;;;;8.76;100.00;100002.31;8318210;28;20043;-51
2022/12/21 16:42:44;;;;;;;4.55;2.28;;;;;;;8.83;100.00;100004.31;8318638;28;20041;-50
2022/12/21 16:47:03;;;;;;;3.95;1.67;;;;;;;8.82;100.00;99993.66;8322794;28;20084;-50
2022/12/21 16:51:04;;;;;;;3.20;1.60;;;;;;;8.74;100.00;99990.81;8308023;28;20040;-50
2022/12/21 16:55:14;;;;;;;4.53;1.50;;;;;;;8.80;100.00;99982.16;8319054;28;20065;-51
2022/12/21 16:59:21;;;;;;;3.35;2.15;;;;;;;8.85;100.00;99963.75;8321808;28;20040;-50
2022/12/21 17:03:32;;;;;;;5.22;2.38;;;;;;;8.78;100.00;99962.63;8323859;28;20037;-51
2022/12/21 17:07:37;;;;;;;12.75;5.47;;;;;;;8.86;100.00;99965.44;8324580;28;20064;-51
2022/12/21 17:11:45;;;;;;;16.35;6.82;;;;;;;8.92;100.00;99960.31;8324025;28;20681;-54
2022/12/21 17:15:58;;;;;;;7.68;2.97;;;;;;;8.96;100.00;99966.25;8322670;28;20250;-53
2022/12/21 17:24:34;;;;;;;13.40;5.95;;;;;;;8.82;100.00;99953.25;8404514;27;20393;-51
2022/12/21 17:28:39;;;;;;;6.57;3.00;;;;;;;9.14;100.00;99960.00;8398315;27;20044;-49
2022/12/21 17:32:40;;;;;;;8.02;4.60;;;;;;;9.37;100.00;99957.81;8360601;28;20059;-50
2022/12/21 17:36:40;;;;;;;7.22;3.70;;;;;;;9.41;100.00;99952.00;8432581;27;20039;-49
2022/12/21 17:40:41;;;;;;;2.90;1.77;;;;;;;9.43;100.00;99943.75;8432488;27;20040;-51
2022/12/21 17:44:41;;;;;;;4.93;2.10;;;;;;;9.39;100.00;99947.72;8431380;27;20040;-50
2022/12/21 17:48:43;;;;;;;4.72;3.28;;;;;;;9.37;100.00;99947.84;8433821;27;20043;-50
2022/12/21 17:52:45;;;;;;;5.63;2.67;;;;;;;9.37;100.00;99939.75;8431947;27;20060;-49
2022/12/21 17:56:45;;;;;;;4.22;1.65;;;;;;;9.43;100.00;99939.19;8430859;27;20047;-50
2022/12/21 18:00:50;;;;;;;3.83;1.55;;;;;;;9.48;100.00;99923.41;8387493;27;20047;-50
2022/12/21 18:04:54;;;;;;;1.80;1.20;;;;;;;9.46;100.00;99927.25;8366375;28;20094;-50
2022/12/21 18:08:55;;;;;;;5.30;1.05;;;;;;;9.53;100.00;99929.22;8376766;27;20032;-50
2022/12/21 18:12:56;;;;;;;3.75;1.50;;;;;;;9.60;100.00;99929.47;8388386;27;20037;-50
2022/12/21 18:16:58;;;;;;;5.45;2.53;;;;;;;9.65;100.00;99910.97;8367924;28;20044;-50
2022/12/21 18:21:00;;;;;;;7.13;1.95;;;;;;;9.72;100.00;99906.66;8387488;27;20033;-51
2022/12/21 18:25:01;;;;;;;6.47;2.20;;;;;;;9.78;100.00;99909.63;8397196;28;20369;-50
2022/12/21 18:29:07;;;;;;;6.50;2.65;;;;;;;9.74;100.00;99908.25;8391875;27;20033;-50
2022/12/21 18:33:12;;;;;;;7.93;1.98;;;;;;;9.69;100.00;99901.56;8382993;27;20048;-52
2022/12/21 18:37:15;;;;;;;7.25;3.97;;;;;;;9.67;100.00;99892.81;8357192;28;20528;-50
2022/12/21 18:41:19;;;;;;;4.70;2.53;;;;;;;9.49;100.00;99883.81;8365014;28;20048;-50
2022/12/21 18:45:19;;;;;;;7.15;1.67;;;;;;;9.31;100.00;99888.28;8349134;28;20080;-50
2022/12/21 18:49:20;;;;;;;3.92;1.98;;;;;;;9.29;100.00;99883.03;8368856;28;20033;-50
2022/12/21 18:53:21;;;;;;;6.05;2.50;;;;;;;9.41;100.00;99872.88;8395457;28;20485;-51
2022/12/21 18:57:22;;;;;;;5.30;2.15;;;;;;;9.41;100.00;99875.59;8417295;28;20036;-52
2022/12/21 19:01:29;;;;;;;7.47;2.05;;;;;;;9.48;100.00;99871.28;8369838;28;20028;-50
2022/12/21 19:05:29;;;;;;;4.82;2.20;;;;;;;9.53;100.00;99863.59;8376135;28;20044;-49
2022/12/21 19:09:30;;;;;;;5.10;1.75;;;;;;;9.43;100.00;99852.03;8386338;28;20095;-50
2022/12/21 19:13:31;;;;;;;11.38;2.08;;;;;;;9.51;100.00;99854.81;8367999;28;20510;-49
2022/12/21 19:17:34;;;;;;;2.65;1.35;;;;;;;9.83;100.00;99844.41;8407673;28;20040;-49
2022/12/21 19:21:37;;;;;;;3.83;1.90;;;;;;;10.00;100.00;99836.31;8374690;28;20041;-50
2022/12/21 19:25:37;;;;;;;3.50;1.58;;;;;;;10.11;100.00;99829.88;8347419;28;20044;-49
2022/12/21 19:29:38;;;;;;;1.50;1.30;;;;;;;10.25;100.00;99813.13;8366107;28;20040;-49
2022/12/21 19:33:38;;;;;;;1.33;1.15;;;;;;;10.33;100.00;99810.47;8333126;28;20053;-51
2022/12/21 19:37:39;;;;;;;1.98;1.10;;;;;;;10.45;100.00;99809.22;8334161;28;20072;-50